Time;durP1;ratioP1;P1;durP2;ratioP2;P2;SDS_P1;SDS_P2;PMS_P1;PMS_P2;Temp;Humidity;BMP_temperature;BMP_pressure;BME280_temperature;BME280_humidity;BME280_pressure;Samples;Min_cycle;Max_cycle;Signal;HPM_P1;HPM_P2
2020/12/24 00:02:19;;;;;;;0.77;0.40;;;9.50;99.90;;;;;;4968616;28;20176;-83
2020/12/24 00:04:44;;;;;;;0.90;0.30;;;9.50;99.90;;;;;;4981011;28;20220;-83
2020/12/24 00:07:10;;;;;;;1.27;0.40;;;9.50;99.90;;;;;;4980467;28;20543;-83
2020/12/24 00:09:36;;;;;;;1.53;0.37;;;9.50;99.90;;;;;;4982447;28;20240;-83
2020/12/24 00:12:02;;;;;;;0.33;0.33;;;9.40;99.90;;;;;;4981978;28;20267;-83
2020/12/24 00:14:27;;;;;;;0.50;0.50;;;9.40;99.90;;;;;;4981599;28;20197;-82
2020/12/24 00:16:53;;;;;;;0.40;0.40;;;9.50;99.90;;;;;;4980704;28;20189;-84
2020/12/24 00:19:19;;;;;;;0.97;0.43;;;9.40;99.90;;;;;;4982091;28;20184;-83
2020/12/24 00:21:45;;;;;;;0.50;0.30;;;9.50;99.90;;;;;;4982143;28;20255;-82
2020/12/24 00:24:11;;;;;;;1.47;0.40;;;9.40;99.90;;;;;;4980805;28;20204;-83
2020/12/24 00:26:37;;;;;;;1.87;0.40;;;9.40;99.90;;;;;;4980044;28;20284;-83
2020/12/24 00:29:06;;;;;;;0.97;0.50;;;9.40;99.90;;;;;;4981807;28;20187;-85
2020/12/24 00:31:33;;;;;;;0.47;0.27;;;9.40;99.90;;;;;;4981149;28;20545;-82
2020/12/24 00:34:00;;;;;;;0.90;0.30;;;9.40;99.90;;;;;;4980861;28;20204;-82
2020/12/24 00:36:26;;;;;;;0.87;0.40;;;9.40;99.90;;;;;;4982182;28;20561;-82
2020/12/24 00:38:51;;;;;;;0.60;0.30;;;9.30;99.90;;;;;;4980571;28;20186;-82
2020/12/24 00:41:17;;;;;;;1.50;0.30;;;9.30;99.90;;;;;;4980311;28;20191;-80
2020/12/24 00:43:43;;;;;;;0.40;0.30;;;9.30;99.90;;;;;;4980229;28;20212;-83
2020/12/24 00:46:09;;;;;;;1.83;0.40;;;9.30;99.90;;;;;;4981392;28;20204;-83
2020/12/24 00:48:34;;;;;;;1.63;0.37;;;9.30;99.90;;;;;;4980685;28;20216;-82
2020/12/24 00:51:00;;;;;;;1.80;0.40;;;9.30;99.90;;;;;;4980552;28;20180;-83
2020/12/24 00:53:26;;;;;;;0.93;0.30;;;9.30;99.90;;;;;;4980322;28;20181;-83
2020/12/24 00:55:51;;;;;;;3.40;0.53;;;9.30;99.90;;;;;;4981526;28;20619;-82
2020/12/24 00:58:17;;;;;;;0.60;0.37;;;9.30;99.90;;;;;;4980220;28;20657;-82
2020/12/24 01:00:43;;;;;;;0.33;0.30;;;9.20;99.90;;;;;;4974161;28;20180;-84
2020/12/24 01:03:08;;;;;;;0.60;0.33;;;9.20;99.90;;;;;;4980252;28;20275;-84
2020/12/24 01:05:35;;;;;;;0.70;0.40;;;9.30;99.90;;;;;;4981673;28;20213;-82
2020/12/24 01:08:01;;;;;;;0.50;0.47;;;9.20;99.90;;;;;;4974856;28;20618;-82
2020/12/24 01:10:27;;;;;;;0.70;0.40;;;9.20;99.90;;;;;;4980700;28;20176;-83
2020/12/24 01:12:53;;;;;;;0.67;0.40;;;9.20;99.90;;;;;;4980545;28;20188;-84
2020/12/24 01:15:19;;;;;;;0.97;0.40;;;9.20;99.90;;;;;;4981284;28;20690;-83
2020/12/24 01:17:44;;;;;;;0.77;0.40;;;9.20;99.90;;;;;;4979747;28;20670;-83
2020/12/24 01:20:10;;;;;;;0.60;0.40;;;9.20;99.90;;;;;;4980719;28;20191;-83
2020/12/24 01:22:35;;;;;;;1.83;0.37;;;9.10;99.90;;;;;;4981056;28;20192;-82
2020/12/24 01:25:03;;;;;;;0.37;0.37;;;9.10;99.90;;;;;;4981031;28;20219;-82
2020/12/24 01:27:29;;;;;;;1.47;0.50;;;9.10;99.90;;;;;;4979581;28;20234;-83
2020/12/24 01:29:55;;;;;;;0.90;0.40;;;9.00;99.90;;;;;;4981179;28;20190;-82
2020/12/24 01:32:20;;;;;;;1.33;0.63;;;9.00;99.90;;;;;;4979604;28;20184;-83
2020/12/24 01:34:46;;;;;;;0.50;0.30;;;9.00;99.90;;;;;;4980403;28;20225;-82
2020/12/24 01:37:12;;;;;;;0.80;0.40;;;9.00;99.90;;;;;;4980426;28;20190;-82
2020/12/24 01:39:37;;;;;;;0.40;0.27;;;9.00;99.90;;;;;;4967928;28;20275;-82
2020/12/24 01:42:03;;;;;;;1.47;0.50;;;8.90;99.90;;;;;;4980766;28;20255;-83
2020/12/24 01:44:30;;;;;;;0.70;0.53;;;8.90;99.90;;;;;;4980667;28;20212;-82
2020/12/24 01:46:56;;;;;;;1.30;0.70;;;8.90;99.90;;;;;;4979852;28;20199;-82
2020/12/24 01:49:22;;;;;;;1.70;0.50;;;8.90;99.90;;;;;;4980530;28;20185;-83
2020/12/24 01:51:56;;;;;;;1.30;0.50;;;8.90;99.90;;;;;;4980341;28;20200;-83
2020/12/24 01:54:25;;;;;;;1.03;0.80;;;8.90;99.90;;;;;;4980807;28;20677;-82
2020/12/24 01:56:52;;;;;;;1.70;0.53;;;8.90;99.90;;;;;;4970897;28;20261;-83
2020/12/24 01:59:19;;;;;;;2.00;0.70;;;8.90;99.90;;;;;;4966205;28;20184;-83
2020/12/24 02:01:48;;;;;;;1.00;0.53;;;8.90;99.90;;;;;;4975937;28;20251;-82
2020/12/24 02:04:14;;;;;;;0.50;0.50;;;8.90;99.90;;;;;;4978621;28;20648;-83
2020/12/24 02:06:41;;;;;;;0.87;0.50;;;8.90;99.90;;;;;;4981230;28;20287;-83
2020/12/24 02:09:08;;;;;;;0.90;0.47;;;8.80;99.90;;;;;;4979857;28;20653;-82
2020/12/24 02:11:34;;;;;;;0.87;0.50;;;8.80;99.90;;;;;;4980544;28;20654;-83
2020/12/24 02:14:00;;;;;;;0.83;0.67;;;8.70;99.90;;;;;;4979828;28;20223;-82
2020/12/24 02:16:27;;;;;;;0.70;0.40;;;8.70;99.90;;;;;;4980725;28;20271;-82
2020/12/24 02:18:53;;;;;;;0.93;0.43;;;8.70;99.90;;;;;;4980840;28;20181;-82
2020/12/24 02:21:19;;;;;;;1.57;0.40;;;8.60;99.90;;;;;;4981502;28;20190;-82
2020/12/24 02:23:44;;;;;;;0.77;0.57;;;8.50;99.90;;;;;;4979745;28;20575;-82
2020/12/24 02:26:11;;;;;;;0.97;0.30;;;8.50;99.90;;;;;;4980922;28;20187;-82
2020/12/24 02:28:37;;;;;;;0.63;0.40;;;8.40;99.90;;;;;;4978828;28;20175;-82
2020/12/24 02:31:04;;;;;;;0.33;0.20;;;8.40;99.90;;;;;;4980206;28;20190;-82
2020/12/24 02:33:30;;;;;;;0.83;0.50;;;8.20;99.90;;;;;;4978455;28;20550;-82
2020/12/24 02:35:56;;;;;;;0.93;0.50;;;8.10;99.90;;;;;;4979297;28;20711;-82
2020/12/24 02:38:22;;;;;;;0.80;0.30;;;8.10;99.90;;;;;;4981474;28;20175;-84
2020/12/24 02:40:48;;;;;;;1.47;0.63;;;8.20;99.90;;;;;;4981917;28;20181;-84
2020/12/24 02:43:14;;;;;;;1.10;0.67;;;8.10;99.90;;;;;;4965943;28;20180;-83
2020/12/24 02:45:40;;;;;;;0.67;0.30;;;8.10;99.90;;;;;;4979885;28;20288;-84
2020/12/24 02:48:06;;;;;;;1.80;0.30;;;7.90;99.90;;;;;;4981171;28;20215;-82
2020/12/24 02:50:32;;;;;;;0.47;0.20;;;7.90;99.90;;;;;;4980438;28;20187;-83
2020/12/24 02:52:58;;;;;;;1.50;0.20;;;7.80;99.90;;;;;;4980433;28;20185;-84
2020/12/24 02:55:24;;;;;;;0.37;0.20;;;7.90;99.90;;;;;;4981056;28;20206;-82
2020/12/24 02:57:50;;;;;;;0.20;0.20;;;7.80;99.90;;;;;;4981316;28;20180;-82
2020/12/24 03:00:16;;;;;;;0.83;0.33;;;7.70;99.90;;;;;;4958365;28;20680;-81
2020/12/24 03:02:42;;;;;;;1.33;0.40;;;7.70;99.90;;;;;;4953533;29;20266;-84
2020/12/24 03:05:08;;;;;;;0.73;0.27;;;7.70;99.90;;;;;;4960128;28;20267;-82
2020/12/24 03:07:34;;;;;;;1.00;0.40;;;7.60;99.90;;;;;;4966981;28;20225;-83
2020/12/24 03:10:00;;;;;;;0.97;0.40;;;7.50;99.90;;;;;;4982313;28;20179;-82
2020/12/24 03:12:27;;;;;;;1.07;0.40;;;7.40;99.90;;;;;;4982522;28;20182;-82
2020/12/24 03:14:53;;;;;;;1.67;0.40;;;7.30;99.90;;;;;;4981898;28;20268;-82
2020/12/24 03:17:20;;;;;;;2.90;0.40;;;7.30;99.90;;;;;;4980737;28;20180;-83
2020/12/24 03:19:46;;;;;;;0.40;0.30;;;7.20;99.90;;;;;;4981954;28;20182;-81
2020/12/24 03:22:12;;;;;;;1.90;0.40;;;7.20;99.90;;;;;;4980596;28;20668;-82
2020/12/24 03:24:38;;;;;;;0.70;0.33;;;7.20;99.90;;;;;;4981452;28;21097;-81
2020/12/24 03:27:03;;;;;;;0.93;0.30;;;7.20;99.90;;;;;;4982167;28;20199;-82
2020/12/24 03:29:29;;;;;;;3.97;0.67;;;7.10;99.90;;;;;;4980515;28;20179;-81
2020/12/24 03:31:57;;;;;;;1.27;0.50;;;7.20;99.90;;;;;;4982134;28;20309;-83
2020/12/24 03:34:23;;;;;;;1.87;0.70;;;7.10;99.90;;;;;;4980919;28;20229;-83
2020/12/24 03:36:50;;;;;;;2.70;0.50;;;7.10;99.90;;;;;;4981209;28;20188;-85
2020/12/24 03:39:17;;;;;;;2.50;0.53;;;7.00;99.90;;;;;;4964135;28;20196;-80
2020/12/24 03:41:42;;;;;;;1.43;0.30;;;6.90;99.90;;;;;;4963554;28;20188;-81
2020/12/24 03:44:08;;;;;;;1.17;0.57;;;7.00;99.90;;;;;;4979387;28;20756;-82
2020/12/24 03:46:34;;;;;;;2.43;0.73;;;7.00;99.90;;;;;;4980639;28;20212;-81
2020/12/24 03:49:00;;;;;;;2.53;0.40;;;7.10;99.90;;;;;;4980925;28;20187;-83
2020/12/24 03:51:28;;;;;;;4.60;0.90;;;7.10;99.90;;;;;;4979279;28;20528;-83
2020/12/24 03:53:54;;;;;;;1.53;0.40;;;7.00;99.90;;;;;;4979657;28;20202;-82
2020/12/24 03:56:20;;;;;;;1.07;0.40;;;7.00;99.90;;;;;;4980476;28;20709;-83
2020/12/24 03:58:45;;;;;;;1.13;0.30;;;7.10;99.90;;;;;;4961142;28;20219;-83
2020/12/24 04:01:11;;;;;;;3.20;0.63;;;7.00;99.90;;;;;;4974550;28;20241;-81
2020/12/24 04:03:37;;;;;;;0.97;0.30;;;6.90;99.90;;;;;;4983373;28;20276;-81
2020/12/24 04:06:05;;;;;;;1.00;0.60;;;6.90;99.90;;;;;;4983332;28;20274;-82
2020/12/24 04:08:31;;;;;;;2.67;0.77;;;7.00;99.90;;;;;;4982779;28;20723;-81
2020/12/24 04:10:56;;;;;;;2.97;0.30;;;6.80;99.90;;;;;;4983583;28;20180;-81
2020/12/24 04:13:22;;;;;;;1.53;0.40;;;6.90;99.90;;;;;;4981502;28;20175;-83
2020/12/24 04:15:47;;;;;;;1.83;0.50;;;6.80;99.90;;;;;;4969320;28;20183;-81
2020/12/24 04:18:13;;;;;;;0.37;0.30;;;6.80;99.90;;;;;;4983182;28;20190;-82
2020/12/24 04:20:39;;;;;;;1.77;0.50;;;6.80;99.90;;;;;;4970018;28;20178;-81
2020/12/24 04:23:05;;;;;;;2.37;0.50;;;6.80;99.90;;;;;;4982241;28;20187;-79
2020/12/24 04:25:30;;;;;;;2.77;0.50;;;6.80;99.90;;;;;;4971265;28;20291;-82
2020/12/24 04:27:56;;;;;;;0.30;0.23;;;6.80;99.90;;;;;;4980084;28;20209;-81
2020/12/24 04:30:22;;;;;;;0.87;0.27;;;6.80;99.90;;;;;;4982634;28;20181;-84
2020/12/24 04:32:48;;;;;;;1.53;0.60;;;6.80;99.90;;;;;;4981148;28;20190;-82
2020/12/24 04:35:13;;;;;;;1.03;0.30;;;6.70;99.90;;;;;;4982502;28;20280;-83
2020/12/24 04:37:39;;;;;;;1.50;0.50;;;6.80;99.90;;;;;;4982019;28;20182;-82
2020/12/24 04:40:05;;;;;;;3.10;0.70;;;6.80;99.90;;;;;;4982150;28;20205;-81
2020/12/24 04:42:32;;;;;;;0.90;0.53;;;6.70;99.90;;;;;;4982762;28;20205;-81
2020/12/24 04:44:59;;;;;;;2.73;0.60;;;6.70;99.90;;;;;;4982980;28;20199;-81
2020/12/24 04:47:26;;;;;;;1.53;0.53;;;6.70;99.90;;;;;;4982719;28;20216;-82
2020/12/24 04:49:54;;;;;;;1.07;0.30;;;6.70;99.90;;;;;;4981616;28;20251;-83
2020/12/24 04:52:20;;;;;;;1.53;0.60;;;6.70;99.90;;;;;;4982182;28;20178;-82
2020/12/24 04:54:47;;;;;;;1.40;0.50;;;6.70;99.90;;;;;;4982618;28;20225;-82
2020/12/24 04:57:13;;;;;;;0.50;0.20;;;6.60;99.90;;;;;;4982473;28;20706;-81
2020/12/24 04:59:38;;;;;;;2.00;0.37;;;6.60;99.90;;;;;;4973396;28;20182;-81
2020/12/24 05:02:05;;;;;;;1.10;0.33;;;6.60;99.90;;;;;;4960489;28;20699;-81
2020/12/24 05:04:32;;;;;;;1.53;0.40;;;6.60;99.90;;;;;;4958922;28;20276;-81
2020/12/24 05:07:06;;;;;;;0.80;0.20;;;6.70;99.90;;;;;;4961663;28;20630;-82
2020/12/24 05:09:33;;;;;;;1.17;0.30;;;6.60;99.90;;;;;;4970664;28;20719;-81
2020/12/24 05:11:58;;;;;;;0.43;0.20;;;6.70;99.90;;;;;;4980948;28;20183;-82
2020/12/24 05:14:27;;;;;;;1.30;0.37;;;6.70;99.90;;;;;;4981728;28;20202;-80
2020/12/24 05:17:02;;;;;;;1.87;0.30;;;6.70;99.90;;;;;;4971730;28;20307;-82
2020/12/24 05:19:33;;;;;;;1.70;0.40;;;6.70;99.90;;;;;;4965642;28;20606;-81
2020/12/24 05:22:16;;;;;;;0.33;0.20;;;6.70;99.90;;;;;;4981881;28;20189;-81
2020/12/24 05:24:42;;;;;;;2.40;0.37;;;6.70;99.90;;;;;;4977080;28;20199;-82
2020/12/24 05:27:13;;;;;;;0.97;0.40;;;6.70;99.90;;;;;;4962680;28;20212;-81
2020/12/24 05:29:41;;;;;;;1.23;0.50;;;6.70;99.90;;;;;;4978801;28;20269;-82
2020/12/24 05:32:07;;;;;;;0.50;0.30;;;6.70;99.90;;;;;;4982051;28;20177;-80
2020/12/24 05:34:33;;;;;;;1.33;0.30;;;6.70;99.90;;;;;;4980367;28;20286;-81
2020/12/24 05:37:14;;;;;;;0.97;0.40;;;6.70;99.90;;;;;;4981910;28;20182;-81
2020/12/24 05:39:42;;;;;;;0.93;0.40;;;6.70;99.90;;;;;;4981151;28;20186;-81
2020/12/24 05:42:09;;;;;;;1.17;0.27;;;6.80;99.90;;;;;;4979947;28;20186;-81
2020/12/24 05:44:35;;;;;;;0.47;0.40;;;6.70;99.90;;;;;;4974896;28;20197;-80
2020/12/24 05:47:01;;;;;;;0.90;0.30;;;6.70;99.90;;;;;;4981252;28;20209;-81
2020/12/24 05:49:28;;;;;;;1.93;0.60;;;6.80;99.90;;;;;;4979914;28;20544;-81
2020/12/24 05:51:57;;;;;;;1.60;0.40;;;6.70;99.90;;;;;;4981012;28;20189;-81
2020/12/24 05:54:25;;;;;;;1.20;0.50;;;6.80;99.90;;;;;;4980898;28;20675;-81
2020/12/24 05:56:53;;;;;;;0.60;0.43;;;6.80;99.90;;;;;;4980839;28;20213;-80
2020/12/24 05:59:24;;;;;;;0.37;0.20;;;6.80;99.90;;;;;;4975649;28;20178;-80
2020/12/24 06:02:05;;;;;;;1.40;0.30;;;6.70;99.90;;;;;;4976440;28;20228;-80
2020/12/24 06:04:43;;;;;;;0.20;0.20;;;6.70;99.90;;;;;;4980756;28;20225;-81
2020/12/24 06:07:10;;;;;;;0.37;0.30;;;6.80;99.90;;;;;;4980463;28;20216;-80
2020/12/24 06:09:38;;;;;;;0.30;0.30;;;6.70;99.90;;;;;;4979357;28;20223;-80
2020/12/24 06:12:22;;;;;;;0.30;0.30;;;6.70;99.90;;;;;;4980860;28;20192;-81
2020/12/24 06:14:52;;;;;;;0.67;0.57;;;6.70;99.90;;;;;;4981032;28;20716;-81
2020/12/24 06:17:20;;;;;;;0.63;0.40;;;6.70;99.90;;;;;;4980414;28;20204;-81
2020/12/24 06:19:47;;;;;;;0.80;0.40;;;6.70;99.90;;;;;;4979736;28;20215;-80
2020/12/24 06:22:14;;;;;;;0.70;0.40;;;6.70;99.90;;;;;;4980019;28;20190;-80
2020/12/24 06:24:51;;;;;;;0.70;0.30;;;6.70;99.90;;;;;;4978996;28;20231;-79
2020/12/24 06:27:35;;;;;;;0.30;0.30;;;6.70;99.90;;;;;;4980506;28;20202;-80
2020/12/24 06:30:15;;;;;;;0.53;0.27;;;6.70;99.90;;;;;;4980010;28;20330;-79
2020/12/24 06:32:47;;;;;;;0.60;0.27;;;6.70;99.90;;;;;;4978371;28;20177;-80
2020/12/24 06:35:34;;;;;;;0.80;0.40;;;6.70;99.90;;;;;;4980104;28;20194;-80
2020/12/24 06:37:59;;;;;;;0.97;0.40;;;6.70;99.90;;;;;;4979362;28;20183;-81
2020/12/24 06:40:30;;;;;;;0.73;0.40;;;6.60;99.90;;;;;;4980058;28;20269;-80
2020/12/24 06:42:57;;;;;;;1.83;0.60;;;6.60;99.90;;;;;;4979678;28;20648;-81
2020/12/24 06:45:29;;;;;;;0.17;0.10;;;6.60;99.90;;;;;;4978365;28;20204;-81
2020/12/24 06:48:22;;;;;;;0.60;0.47;;;6.60;99.90;;;;;;4979687;28;20253;-80
2020/12/24 06:50:49;;;;;;;0.30;0.30;;;6.60;99.90;;;;;;4970580;28;20182;-80
2020/12/24 06:53:34;;;;;;;0.83;0.23;;;6.60;99.90;;;;;;4974924;28;20679;-80
2020/12/24 06:58:48;;;;;;;0.83;0.40;;;6.50;99.90;;;;;;4979287;28;20180;-80
2020/12/24 07:01:17;;;;;;;0.47;0.30;;;6.50;99.90;;;;;;4970654;28;20178;-80
2020/12/24 07:03:44;;;;;;;1.53;0.40;;;6.50;99.90;;;;;;4979202;28;20220;-81
2020/12/24 07:06:10;;;;;;;0.40;0.40;;;6.50;99.90;;;;;;4979175;28;20266;-80
2020/12/24 07:08:35;;;;;;;0.63;0.50;;;6.40;99.90;;;;;;4979920;28;20219;-80
2020/12/24 07:11:02;;;;;;;0.73;0.50;;;6.50;99.90;;;;;;4979743;28;20570;-80
2020/12/24 07:13:38;;;;;;;0.83;0.40;;;6.50;99.90;;;;;;4978961;28;20595;-80
2020/12/24 07:16:14;;;;;;;0.30;0.30;;;6.50;99.90;;;;;;4979395;28;20184;-81
2020/12/24 07:18:41;;;;;;;0.30;0.20;;;6.50;99.90;;;;;;4979209;28;20176;-80
2020/12/24 07:21:10;;;;;;;0.47;0.40;;;6.40;99.90;;;;;;4979484;28;20189;-80
2020/12/24 07:23:38;;;;;;;1.00;0.40;;;6.60;99.90;;;;;;4979248;28;20179;-80
2020/12/24 07:26:05;;;;;;;0.50;0.30;;;6.50;99.90;;;;;;4978400;28;20185;-80
2020/12/24 07:28:36;;;;;;;0.33;0.20;;;6.60;99.90;;;;;;4978768;28;20184;-81
2020/12/24 07:31:09;;;;;;;0.30;0.30;;;6.50;99.90;;;;;;4979906;28;20197;-80
2020/12/24 07:33:43;;;;;;;1.47;0.50;;;6.50;99.90;;;;;;4979490;28;20180;-81
2020/12/24 07:36:10;;;;;;;0.27;0.20;;;6.50;99.90;;;;;;4981932;28;20188;-80
2020/12/24 07:38:36;;;;;;;0.90;0.63;;;6.60;99.90;;;;;;4982112;28;20235;-80
2020/12/24 07:41:02;;;;;;;0.93;0.33;;;6.50;99.90;;;;;;4974164;28;20187;-81
2020/12/24 07:43:28;;;;;;;0.87;0.40;;;6.50;99.90;;;;;;4982411;28;20320;-80
2020/12/24 07:45:53;;;;;;;0.20;0.20;;;6.50;99.90;;;;;;4982013;28;20212;-81
2020/12/24 07:48:21;;;;;;;0.87;0.40;;;6.50;99.90;;;;;;4982838;28;20263;-80
2020/12/24 07:50:49;;;;;;;0.50;0.50;;;6.50;99.90;;;;;;4983441;28;20191;-81
2020/12/24 07:53:20;;;;;;;1.73;0.57;;;6.60;99.90;;;;;;4983057;28;20642;-81
2020/12/24 07:55:47;;;;;;;1.77;1.20;;;6.50;99.90;;;;;;4981398;28;20178;-81
2020/12/24 07:58:14;;;;;;;1.00;0.70;;;6.50;99.90;;;;;;4982852;28;20282;-82
2020/12/24 08:00:48;;;;;;;3.00;0.90;;;6.50;99.90;;;;;;4973607;28;20652;-81
2020/12/24 08:03:16;;;;;;;1.83;1.10;;;6.40;99.90;;;;;;4981737;28;20227;-80
2020/12/24 08:05:43;;;;;;;4.23;1.00;;;6.50;99.90;;;;;;4981830;28;20710;-80
2020/12/24 08:08:09;;;;;;;1.40;0.90;;;6.50;99.90;;;;;;4982023;28;20247;-81
2020/12/24 08:10:43;;;;;;;0.90;0.60;;;6.50;99.90;;;;;;4983221;28;20175;-80
2020/12/24 08:13:10;;;;;;;0.80;0.80;;;6.50;99.90;;;;;;4981822;28;20187;-81
2020/12/24 08:15:45;;;;;;;5.03;0.87;;;6.50;99.90;;;;;;4980046;28;20266;-80
2020/12/24 08:18:14;;;;;;;1.17;0.70;;;6.50;99.90;;;;;;4981302;28;20237;-81
2020/12/24 08:21:06;;;;;;;2.37;1.33;;;6.50;99.90;;;;;;4981563;28;20185;-80
2020/12/24 08:24:07;;;;;;;6.20;1.30;;;6.50;99.90;;;;;;4981722;28;20511;-81
2020/12/24 08:26:33;;;;;;;2.30;1.20;;;6.50;99.90;;;;;;4980300;28;20225;-81
2020/12/24 08:29:05;;;;;;;1.23;0.90;;;6.50;99.90;;;;;;4982442;28;20181;-81
2020/12/24 08:31:32;;;;;;;3.97;2.43;;;6.40;99.90;;;;;;4970418;28;20181;-80
2020/12/24 08:33:58;;;;;;;1.80;0.97;;;6.40;99.90;;;;;;4975118;28;20198;-81
2020/12/24 08:36:27;;;;;;;1.60;1.10;;;6.40;99.90;;;;;;4979955;28;20281;-81
2020/12/24 08:39:09;;;;;;;1.67;1.07;;;6.40;99.90;;;;;;4981602;28;20266;-81
2020/12/24 08:41:42;;;;;;;1.27;0.93;;;6.50;99.90;;;;;;4981177;28;20590;-80
2020/12/24 08:44:09;;;;;;;1.30;1.20;;;6.50;99.90;;;;;;4982499;28;20211;-81
2020/12/24 08:46:35;;;;;;;1.23;0.90;;;6.60;99.90;;;;;;4978835;28;20217;-81
2020/12/24 08:49:25;;;;;;;2.20;1.00;;;6.50;99.90;;;;;;4981419;28;20178;-81
2020/12/24 08:52:08;;;;;;;1.77;0.97;;;6.60;99.90;;;;;;4980553;28;20182;-81
2020/12/24 08:54:37;;;;;;;0.97;0.90;;;6.60;99.90;;;;;;4969038;28;20211;-81
2020/12/24 08:57:04;;;;;;;1.00;0.73;;;6.60;99.90;;;;;;4979289;28;20264;-82
2020/12/24 08:59:30;;;;;;;0.80;0.63;;;6.80;99.90;;;;;;4975922;28;20240;-81
2020/12/24 09:01:56;;;;;;;0.90;0.80;;;6.80;99.90;;;;;;4977258;28;20189;-81
2020/12/24 09:04:22;;;;;;;1.43;0.70;;;7.00;99.90;;;;;;4980455;28;20218;-81
2020/12/24 09:06:48;;;;;;;2.43;1.03;;;6.90;99.90;;;;;;4980905;28;20201;-81
2020/12/24 09:09:22;;;;;;;1.63;1.00;;;7.00;99.90;;;;;;4979469;28;20679;-81
2020/12/24 09:11:48;;;;;;;1.93;0.90;;;7.10;99.90;;;;;;4979005;28;20218;-80
2020/12/24 09:14:22;;;;;;;1.67;1.30;;;7.10;99.90;;;;;;4980853;28;20203;-80
2020/12/24 09:16:56;;;;;;;1.70;1.03;;;7.00;99.90;;;;;;4980758;28;20246;-81
2020/12/24 09:19:22;;;;;;;1.63;1.00;;;7.10;99.90;;;;;;4980010;28;20217;-81
2020/12/24 09:21:58;;;;;;;1.50;0.83;;;7.10;99.90;;;;;;4980919;28;20544;-81
2020/12/24 09:24:25;;;;;;;2.50;1.30;;;7.10;99.90;;;;;;4979528;28;20224;-81
2020/12/24 09:26:54;;;;;;;2.30;1.20;;;7.10;99.90;;;;;;4979651;28;20202;-81
2020/12/24 09:29:21;;;;;;;1.50;1.20;;;7.20;99.90;;;;;;4980058;28;20175;-81
2020/12/24 09:32:01;;;;;;;3.00;1.03;;;7.30;99.90;;;;;;4978702;28;20243;-81
2020/12/24 09:34:29;;;;;;;2.00;1.43;;;7.30;99.90;;;;;;4979272;28;20206;-80
2020/12/24 09:36:56;;;;;;;2.33;1.30;;;7.30;99.90;;;;;;4969785;28;20229;-80
2020/12/24 09:39:22;;;;;;;1.87;1.30;;;7.40;99.90;;;;;;4962069;28;20186;-80
2020/12/24 09:41:50;;;;;;;2.20;1.73;;;7.40;99.90;;;;;;4967465;28;20188;-82
2020/12/24 09:44:16;;;;;;;3.17;1.33;;;7.40;99.90;;;;;;4978579;28;20576;-81
2020/12/24 09:46:42;;;;;;;4.67;1.77;;;7.40;99.90;;;;;;4979569;28;20206;-80
2020/12/24 09:49:08;;;;;;;2.43;1.60;;;7.50;99.90;;;;;;4979777;28;20193;-80
2020/12/24 09:51:38;;;;;;;2.53;0.93;;;7.50;99.90;;;;;;4979712;28;20708;-81
2020/12/24 09:54:05;;;;;;;1.40;1.00;;;7.50;99.90;;;;;;4979885;28;20688;-81
2020/12/24 09:56:31;;;;;;;3.00;1.20;;;7.50;99.90;;;;;;4978750;28;20179;-81
2020/12/24 09:58:57;;;;;;;1.30;0.90;;;7.50;99.90;;;;;;4977509;28;20190;-81
2020/12/24 10:01:22;;;;;;;1.13;0.73;;;7.60;99.90;;;;;;4972214;28;20186;-81
2020/12/24 10:03:49;;;;;;;2.33;0.90;;;7.60;99.90;;;;;;4979267;28;20306;-80
2020/12/24 10:06:15;;;;;;;2.87;0.83;;;7.60;99.90;;;;;;4979430;28;20208;-81
2020/12/24 10:08:41;;;;;;;1.43;0.60;;;7.60;99.90;;;;;;4979500;28;20190;-81
2020/12/24 10:11:16;;;;;;;1.87;0.70;;;7.80;99.90;;;;;;4979901;28;20188;-81
2020/12/24 10:13:42;;;;;;;5.00;0.60;;;7.80;99.90;;;;;;4979222;28;20708;-81
2020/12/24 10:16:08;;;;;;;0.90;0.47;;;7.80;99.90;;;;;;4980077;28;20168;-81
2020/12/24 10:18:34;;;;;;;0.67;0.30;;;7.90;99.90;;;;;;4962220;28;20196;-81
2020/12/24 10:21:01;;;;;;;2.10;0.63;;;7.80;99.90;;;;;;4976221;28;20663;-81
2020/12/24 10:23:27;;;;;;;1.40;0.57;;;7.80;99.90;;;;;;4966511;28;20479;-81
2020/12/24 10:25:53;;;;;;;3.00;0.70;;;7.90;99.90;;;;;;4965991;28;20270;-81
2020/12/24 10:28:19;;;;;;;5.77;0.70;;;7.80;99.90;;;;;;4958511;28;20208;-81
2020/12/24 10:30:45;;;;;;;2.53;0.80;;;7.80;99.90;;;;;;4970333;28;20724;-81
2020/12/24 10:33:11;;;;;;;1.93;0.60;;;7.80;99.90;;;;;;4979570;28;20645;-80
2020/12/24 10:35:40;;;;;;;2.63;0.63;;;7.70;99.90;;;;;;4967594;28;20204;-81
2020/12/24 10:38:06;;;;;;;1.40;0.57;;;7.70;99.90;;;;;;4963108;28;20610;-82
2020/12/24 10:40:31;;;;;;;1.20;0.67;;;7.70;99.90;;;;;;4977718;28;20207;-81
2020/12/24 10:42:58;;;;;;;1.20;0.60;;;7.60;99.90;;;;;;4963467;28;20222;-80
2020/12/24 10:45:25;;;;;;;2.07;0.67;;;7.50;99.90;;;;;;4967074;28;20205;-80
2020/12/24 10:47:52;;;;;;;2.23;0.73;;;7.40;99.90;;;;;;4956560;28;20207;-80
2020/12/24 10:50:19;;;;;;;1.27;0.70;;;7.40;99.90;;;;;;4978392;28;20185;-80
2020/12/24 10:52:45;;;;;;;3.53;0.43;;;7.40;99.90;;;;;;4979346;28;20662;-81
2020/12/24 10:55:11;;;;;;;0.73;0.40;;;7.30;99.90;;;;;;4966667;28;20202;-80
2020/12/24 10:57:37;;;;;;;0.90;0.40;;;7.30;99.90;;;;;;4979718;28;20265;-80
2020/12/24 11:00:07;;;;;;;2.07;0.60;;;7.30;99.90;;;;;;4971614;28;20658;-80
2020/12/24 11:02:33;;;;;;;2.10;0.50;;;7.40;99.90;;;;;;4978605;28;20206;-80
2020/12/24 11:05:00;;;;;;;3.40;0.50;;;7.50;99.90;;;;;;4978219;28;20233;-81
2020/12/24 11:07:26;;;;;;;0.87;0.50;;;7.40;99.90;;;;;;4978296;28;20197;-80
2020/12/24 11:09:51;;;;;;;1.07;0.47;;;7.40;99.90;;;;;;4979389;28;20185;-80
2020/12/24 11:12:17;;;;;;;1.67;0.50;;;7.40;99.90;;;;;;4964034;28;20189;-81
2020/12/24 11:14:43;;;;;;;1.27;0.50;;;7.40;99.90;;;;;;4979424;28;20203;-81
2020/12/24 11:17:08;;;;;;;0.33;0.33;;;7.40;99.90;;;;;;4978503;28;20729;-81
2020/12/24 11:19:34;;;;;;;1.23;0.50;;;7.40;99.90;;;;;;4977999;28;20261;-81
2020/12/24 11:22:00;;;;;;;1.07;0.33;;;7.40;99.90;;;;;;4966069;28;20206;-81
2020/12/24 11:24:26;;;;;;;0.57;0.30;;;7.40;99.90;;;;;;4962989;28;20208;-81
2020/12/24 11:26:52;;;;;;;1.07;0.60;;;7.40;99.90;;;;;;4959917;28;20199;-80
2020/12/24 11:29:17;;;;;;;1.37;0.50;;;7.50;99.90;;;;;;4961142;28;20286;-81
2020/12/24 11:31:43;;;;;;;1.87;0.50;;;7.50;99.90;;;;;;4966893;28;20183;-80
2020/12/24 11:34:09;;;;;;;0.93;0.30;;;7.50;99.90;;;;;;4979276;28;20216;-81
2020/12/24 11:36:35;;;;;;;1.27;0.40;;;7.60;99.90;;;;;;4961837;28;20182;-80
2020/12/24 11:39:03;;;;;;;2.83;0.60;;;7.50;99.90;;;;;;4979508;28;20200;-81
2020/12/24 11:41:29;;;;;;;1.03;0.40;;;7.60;99.90;;;;;;4979616;28;20597;-80
2020/12/24 11:43:56;;;;;;;2.23;0.50;;;7.60;99.90;;;;;;4978960;28;20652;-81
2020/12/24 11:46:23;;;;;;;1.40;0.60;;;7.60;99.90;;;;;;4977801;28;20187;-80
2020/12/24 11:48:50;;;;;;;0.93;0.37;;;7.60;99.90;;;;;;4965831;28;20178;-81
2020/12/24 11:51:16;;;;;;;1.17;0.60;;;7.60;99.90;;;;;;4979300;28;20654;-80
2020/12/24 11:53:43;;;;;;;1.97;0.50;;;7.60;99.90;;;;;;4978738;28;20193;-80
2020/12/24 11:56:17;;;;;;;1.53;0.67;;;7.60;99.90;;;;;;4977321;28;20187;-81
2020/12/24 11:58:44;;;;;;;0.73;0.43;;;7.60;99.90;;;;;;4979078;28;20194;-81
2020/12/24 12:01:14;;;;;;;1.47;0.50;;;7.60;99.90;;;;;;4969665;28;20187;-81
2020/12/24 12:03:40;;;;;;;5.77;0.57;;;7.70;99.90;;;;;;4978785;28;20654;-80
2020/12/24 12:06:07;;;;;;;1.60;0.50;;;7.80;99.90;;;;;;4979316;28;20207;-79
2020/12/24 12:08:33;;;;;;;0.50;0.40;;;7.80;99.90;;;;;;4978698;28;20585;-80
2020/12/24 12:11:06;;;;;;;1.37;0.60;;;7.90;99.90;;;;;;4979764;28;20187;-80
2020/12/24 12:13:32;;;;;;;1.57;0.50;;;8.00;99.90;;;;;;4978772;28;20176;-80
2020/12/24 12:15:58;;;;;;;0.40;0.30;;;8.10;99.90;;;;;;4979766;28;20209;-80
2020/12/24 12:18:24;;;;;;;1.13;0.50;;;8.20;99.90;;;;;;4978863;28;20187;-79
2020/12/24 12:20:51;;;;;;;1.67;0.50;;;8.20;99.90;;;;;;4979313;28;20181;-80
2020/12/24 12:23:17;;;;;;;1.03;0.40;;;8.20;99.90;;;;;;4980819;28;20190;-80
2020/12/24 12:25:43;;;;;;;2.20;0.50;;;8.40;99.90;;;;;;4981373;28;20202;-80
2020/12/24 12:28:08;;;;;;;0.90;0.40;;;8.50;99.90;;;;;;4977920;28;20218;-79
2020/12/24 12:30:35;;;;;;;0.70;0.40;;;8.40;99.90;;;;;;4971743;28;20194;-80
2020/12/24 12:33:00;;;;;;;2.07;0.60;;;8.40;99.90;;;;;;4981174;28;20190;-80
2020/12/24 12:35:27;;;;;;;2.80;0.40;;;8.40;99.90;;;;;;4981915;28;20229;-79
2020/12/24 12:37:53;;;;;;;0.97;0.40;;;8.40;99.90;;;;;;4967533;28;20199;-79
2020/12/24 12:40:19;;;;;;;2.37;0.60;;;8.30;99.90;;;;;;4948400;28;20189;-80
2020/12/24 12:42:45;;;;;;;1.40;0.50;;;8.30;99.90;;;;;;4952540;28;20227;-79
2020/12/24 12:45:10;;;;;;;1.00;0.50;;;8.40;99.90;;;;;;4958564;28;20207;-80
2020/12/24 12:47:39;;;;;;;2.00;0.40;;;8.40;99.90;;;;;;4960156;28;20289;-79
2020/12/24 12:50:10;;;;;;;1.20;0.50;;;8.40;99.90;;;;;;4956764;28;20255;-79
2020/12/24 12:52:36;;;;;;;2.90;0.97;;;8.30;99.90;;;;;;4954964;28;20178;-79
2020/12/24 12:55:04;;;;;;;2.23;0.77;;;8.40;99.90;;;;;;4954998;28;20278;-81
2020/12/24 12:57:30;;;;;;;1.50;0.57;;;8.30;99.90;;;;;;4963721;28;20193;-80
2020/12/24 12:59:56;;;;;;;1.97;0.63;;;8.30;99.90;;;;;;4957410;28;20186;-80
2020/12/24 13:02:21;;;;;;;1.87;0.63;;;8.30;99.90;;;;;;4963114;28;20180;-79
2020/12/24 13:04:47;;;;;;;4.10;0.80;;;8.10;99.90;;;;;;4956611;28;20273;-79